sensor_id;sensor_type;location;lat;lon;timestamp;temperature;humidity
12015;DHT22;6066;48.138;16.402;2023-05-10T00:01:21;10.30;99.90
12015;DHT22;6066;48.138;16.402;2023-05-10T00:03:48;10.30;99.90
12015;DHT22;6066;48.138;16.402;2023-05-10T00:06:15;10.30;99.90
12015;DHT22;6066;48.138;16.402;2023-05-10T00:08:44;10.20;99.90
12015;DHT22;6066;48.138;16.402;2023-05-10T00:11:11;10.20;99.90
12015;DHT22;6066;48.138;16.402;2023-05-10T00:13:37;10.20;99.90
12015;DHT22;6066;48.138;16.402;2023-05-10T00:16:04;10.20;99.90
12015;DHT22;6066;48.138;16.402;2023-05-10T00:18:32;10.20;99.90
12015;DHT22;6066;48.138;16.402;2023-05-10T00:20:59;10.20;99.90
12015;DHT22;6066;48.138;16.402;2023-05-10T00:23:26;10.20;99.90
12015;DHT22;6066;48.138;16.402;2023-05-10T00:25:52;10.20;99.90
12015;DHT22;6066;48.138;16.402;2023-05-10T00:28:19;10.20;99.90
12015;DHT22;6066;48.138;16.402;2023-05-10T00:30:46;10.20;99.90
12015;DHT22;6066;48.138;16.402;2023-05-10T00:33:12;10.20;99.90
12015;DHT22;6066;48.138;16.402;2023-05-10T00:35:41;10.20;99.90
12015;DHT22;6066;48.138;16.402;2023-05-10T00:38:07;10.20;99.90
12015;DHT22;6066;48.138;16.402;2023-05-10T00:40:35;10.20;99.90
12015;DHT22;6066;48.138;16.402;2023-05-10T00:43:01;10.20;99.90
12015;DHT22;6066;48.138;16.402;2023-05-10T00:45:28;10.20;99.90
12015;DHT22;6066;48.138;16.402;2023-05-10T00:47:55;10.20;99.90
12015;DHT22;6066;48.138;16.402;2023-05-10T00:50:22;10.10;99.90
12015;DHT22;6066;48.138;16.402;2023-05-10T00:52:51;10.10;99.90
12015;DHT22;6066;48.138;16.402;2023-05-10T00:55:18;10.10;99.90
12015;DHT22;6066;48.138;16.402;2023-05-10T00:57:45;10.10;99.90
12015;DHT22;6066;48.138;16.402;2023-05-10T01:00:12;10.00;99.90
12015;DHT22;6066;48.138;16.402;2023-05-10T01:02:43;10.00;99.90
12015;DHT22;6066;48.138;16.402;2023-05-10T01:05:09;10.00;99.90
12015;DHT22;6066;48.138;16.402;2023-05-10T01:07:36;9.90;99.90
12015;DHT22;6066;48.138;16.402;2023-05-10T01:10:05;9.90;99.90
12015;DHT22;6066;48.138;16.402;2023-05-10T01:12:32;9.90;99.90
12015;DHT22;6066;48.138;16.402;2023-05-10T01:14:59;9.90;99.90
12015;DHT22;6066;48.138;16.402;2023-05-10T01:17:26;9.80;99.90
12015;DHT22;6066;48.138;16.402;2023-05-10T01:19:53;9.80;99.90
12015;DHT22;6066;48.138;16.402;2023-05-10T01:22:26;9.80;99.90
12015;DHT22;6066;48.138;16.402;2023-05-10T01:25:14;9.70;99.90
12015;DHT22;6066;48.138;16.402;2023-05-10T01:30:44;9.70;99.90
12015;DHT22;6066;48.138;16.402;2023-05-10T01:33:17;9.70;99.90
12015;DHT22;6066;48.138;16.402;2023-05-10T01:35:47;9.70;99.90
12015;DHT22;6066;48.138;16.402;2023-05-10T01:38:19;9.60;99.90
12015;DHT22;6066;48.138;16.402;2023-05-10T01:40:52;9.60;99.90
12015;DHT22;6066;48.138;16.402;2023-05-10T01:43:22;9.60;99.90
12015;DHT22;6066;48.138;16.402;2023-05-10T01:45:54;9.60;99.90
12015;DHT22;6066;48.138;16.402;2023-05-10T01:48:24;9.50;99.90
12015;DHT22;6066;48.138;16.402;2023-05-10T01:50:53;9.50;99.90
12015;DHT22;6066;48.138;16.402;2023-05-10T01:53:21;9.50;99.90
12015;DHT22;6066;48.138;16.402;2023-05-10T01:55:48;9.50;99.90
12015;DHT22;6066;48.138;16.402;2023-05-10T01:58:17;9.40;99.90
12015;DHT22;6066;48.138;16.402;2023-05-10T02:00:45;9.40;99.90
12015;DHT22;6066;48.138;16.402;2023-05-10T02:03:13;9.40;99.90
12015;DHT22;6066;48.138;16.402;2023-05-10T02:05:41;9.40;99.90
12015;DHT22;6066;48.138;16.402;2023-05-10T02:08:09;9.40;99.90
12015;DHT22;6066;48.138;16.402;2023-05-10T02:10:37;9.30;99.90
12015;DHT22;6066;48.138;16.402;2023-05-10T02:13:05;9.30;99.90
12015;DHT22;6066;48.138;16.402;2023-05-10T02:15:32;9.30;99.90
12015;DHT22;6066;48.138;16.402;2023-05-10T02:18:00;9.30;99.90
12015;DHT22;6066;48.138;16.402;2023-05-10T02:20:27;9.30;99.90
12015;DHT22;6066;48.138;16.402;2023-05-10T02:22:55;9.30;99.90
12015;DHT22;6066;48.138;16.402;2023-05-10T02:25:23;9.20;99.90
12015;DHT22;6066;48.138;16.402;2023-05-10T02:27:50;9.20;99.90
12015;DHT22;6066;48.138;16.402;2023-05-10T02:30:18;9.20;99.90
12015;DHT22;6066;48.138;16.402;2023-05-10T02:32:45;9.20;99.90
12015;DHT22;6066;48.138;16.402;2023-05-10T02:35:12;9.20;99.90
12015;DHT22;6066;48.138;16.402;2023-05-10T02:37:40;9.20;99.90
12015;DHT22;6066;48.138;16.402;2023-05-10T02:40:09;9.20;99.90
12015;DHT22;6066;48.138;16.402;2023-05-10T02:42:37;9.20;99.90
12015;DHT22;6066;48.138;16.402;2023-05-10T02:45:05;9.20;99.90
12015;DHT22;6066;48.138;16.402;2023-05-10T02:47:33;9.20;99.90
12015;DHT22;6066;48.138;16.402;2023-05-10T02:50:00;9.20;99.90
12015;DHT22;6066;48.138;16.402;2023-05-10T02:52:28;9.10;99.90
12015;DHT22;6066;48.138;16.402;2023-05-10T02:54:58;9.10;99.90
12015;DHT22;6066;48.138;16.402;2023-05-10T02:57:28;9.10;99.90
12015;DHT22;6066;48.138;16.402;2023-05-10T02:59:55;9.10;99.90
12015;DHT22;6066;48.138;16.402;2023-05-10T03:02:22;9.00;99.90
12015;DHT22;6066;48.138;16.402;2023-05-10T03:04:49;9.00;99.90
12015;DHT22;6066;48.138;16.402;2023-05-10T03:07:16;9.00;99.90
12015;DHT22;6066;48.138;16.402;2023-05-10T03:09:44;8.90;99.90
12015;DHT22;6066;48.138;16.402;2023-05-10T03:12:12;8.90;99.90
12015;DHT22;6066;48.138;16.402;2023-05-10T03:14:45;8.90;99.90
12015;DHT22;6066;48.138;16.402;2023-05-10T03:17:15;8.90;99.90
12015;DHT22;6066;48.138;16.402;2023-05-10T03:19:46;8.90;99.90
12015;DHT22;6066;48.138;16.402;2023-05-10T03:22:16;8.90;99.90
12015;DHT22;6066;48.138;16.402;2023-05-10T03:24:44;8.90;99.90
12015;DHT22;6066;48.138;16.402;2023-05-10T03:27:11;8.80;99.90
12015;DHT22;6066;48.138;16.402;2023-05-10T03:29:40;8.80;99.90
12015;DHT22;6066;48.138;16.402;2023-05-10T03:32:08;8.80;99.90
12015;DHT22;6066;48.138;16.402;2023-05-10T03:34:36;8.70;99.90
12015;DHT22;6066;48.138;16.402;2023-05-10T03:37:07;8.70;99.90
12015;DHT22;6066;48.138;16.402;2023-05-10T03:39:34;8.70;99.90
12015;DHT22;6066;48.138;16.402;2023-05-10T03:42:00;8.60;99.90
12015;DHT22;6066;48.138;16.402;2023-05-10T03:44:27;8.60;99.90
12015;DHT22;6066;48.138;16.402;2023-05-10T03:46:54;8.60;99.90
12015;DHT22;6066;48.138;16.402;2023-05-10T03:49:23;8.60;99.90
12015;DHT22;6066;48.138;16.402;2023-05-10T03:51:50;8.60;99.90
12015;DHT22;6066;48.138;16.402;2023-05-10T03:54:16;8.60;99.90
12015;DHT22;6066;48.138;16.402;2023-05-10T03:56:43;8.60;99.90
12015;DHT22;6066;48.138;16.402;2023-05-10T03:59:10;8.60;99.90
12015;DHT22;6066;48.138;16.402;2023-05-10T04:01:37;8.60;99.90
12015;DHT22;6066;48.138;16.402;2023-05-10T04:04:04;8.60;99.90
12015;DHT22;6066;48.138;16.402;2023-05-10T04:06:32;8.70;99.90
12015;DHT22;6066;48.138;16.402;2023-05-10T04:08:59;8.70;99.90
12015;DHT22;6066;48.138;16.402;2023-05-10T04:11:29;8.70;99.90
12015;DHT22;6066;48.138;16.402;2023-05-10T04:13:56;8.70;99.90
12015;DHT22;6066;48.138;16.402;2023-05-10T04:16:22;8.70;99.90
12015;DHT22;6066;48.138;16.402;2023-05-10T04:18:49;8.80;99.90
12015;DHT22;6066;48.138;16.402;2023-05-10T04:21:16;8.80;99.90
12015;DHT22;6066;48.138;16.402;2023-05-10T04:23:44;8.80;99.90
12015;DHT22;6066;48.138;16.402;2023-05-10T04:26:10;8.80;99.90
12015;DHT22;6066;48.138;16.402;2023-05-10T04:28:37;8.90;99.90
12015;DHT22;6066;48.138;16.402;2023-05-10T04:31:04;8.90;99.90
12015;DHT22;6066;48.138;16.402;2023-05-10T04:33:31;9.00;99.90
12015;DHT22;6066;48.138;16.402;2023-05-10T04:35:58;9.00;99.90
12015;DHT22;6066;48.138;16.402;2023-05-10T04:38:25;9.10;99.90
12015;DHT22;6066;48.138;16.402;2023-05-10T04:40:53;9.10;99.90
12015;DHT22;6066;48.138;16.402;2023-05-10T04:43:20;9.20;99.90
12015;DHT22;6066;48.138;16.402;2023-05-10T04:45:47;9.20;99.90
12015;DHT22;6066;48.138;16.402;2023-05-10T04:48:13;9.20;99.90
12015;DHT22;6066;48.138;16.402;2023-05-10T04:50:40;9.30;99.90
12015;DHT22;6066;48.138;16.402;2023-05-10T04:53:07;9.40;99.90
12015;DHT22;6066;48.138;16.402;2023-05-10T04:55:33;9.40;99.90
12015;DHT22;6066;48.138;16.402;2023-05-10T04:58:01;9.50;99.90
12015;DHT22;6066;48.138;16.402;2023-05-10T05:00:28;9.50;99.90
12015;DHT22;6066;48.138;16.402;2023-05-10T05:02:55;9.60;99.90
12015;DHT22;6066;48.138;16.402;2023-05-10T05:05:21;9.70;99.90
12015;DHT22;6066;48.138;16.402;2023-05-10T05:07:48;9.70;99.90
12015;DHT22;6066;48.138;16.402;2023-05-10T05:10:15;9.80;99.90
12015;DHT22;6066;48.138;16.402;2023-05-10T05:12:42;9.90;99.90
12015;DHT22;6066;48.138;16.402;2023-05-10T05:15:10;10.00;99.90
12015;DHT22;6066;48.138;16.402;2023-05-10T05:17:37;10.10;99.90
12015;DHT22;6066;48.138;16.402;2023-05-10T05:20:04;10.20;99.90
12015;DHT22;6066;48.138;16.402;2023-05-10T05:22:31;10.20;99.90
12015;DHT22;6066;48.138;16.402;2023-05-10T05:24:58;10.30;99.90
12015;DHT22;6066;48.138;16.402;2023-05-10T05:27:24;10.40;99.90
12015;DHT22;6066;48.138;16.402;2023-05-10T05:29:53;10.50;99.90
12015;DHT22;6066;48.138;16.402;2023-05-10T05:32:21;10.60;99.90
12015;DHT22;6066;48.138;16.402;2023-05-10T05:34:48;10.70;99.90
12015;DHT22;6066;48.138;16.402;2023-05-10T05:37:14;10.80;99.90
12015;DHT22;6066;48.138;16.402;2023-05-10T05:39:41;11.00;99.90
12015;DHT22;6066;48.138;16.402;2023-05-10T05:42:08;11.10;99.90
12015;DHT22;6066;48.138;16.402;2023-05-10T05:44:35;11.30;99.90
12015;DHT22;6066;48.138;16.402;2023-05-10T05:47:02;11.40;99.90
12015;DHT22;6066;48.138;16.402;2023-05-10T05:49:30;11.50;99.90
12015;DHT22;6066;48.138;16.402;2023-05-10T05:51:58;11.70;99.90
12015;DHT22;6066;48.138;16.402;2023-05-10T05:54:25;11.80;99.90
12015;DHT22;6066;48.138;16.402;2023-05-10T05:56:53;11.90;99.90
12015;DHT22;6066;48.138;16.402;2023-05-10T05:59:20;12.00;99.90
12015;DHT22;6066;48.138;16.402;2023-05-10T06:01:46;12.10;99.90
12015;DHT22;6066;48.138;16.402;2023-05-10T06:04:13;12.10;99.90
12015;DHT22;6066;48.138;16.402;2023-05-10T06:06:41;12.30;99.90
12015;DHT22;6066;48.138;16.402;2023-05-10T06:09:08;12.30;99.90
12015;DHT22;6066;48.138;16.402;2023-05-10T06:11:34;12.50;99.90
12015;DHT22;6066;48.138;16.402;2023-05-10T06:14:01;12.60;99.90
12015;DHT22;6066;48.138;16.402;2023-05-10T06:16:29;12.70;99.90
12015;DHT22;6066;48.138;16.402;2023-05-10T06:18:56;12.80;99.90
12015;DHT22;6066;48.138;16.402;2023-05-10T06:21:22;12.90;99.90
12015;DHT22;6066;48.138;16.402;2023-05-10T06:23:51;13.00;99.90
12015;DHT22;6066;48.138;16.402;2023-05-10T06:26:17;13.10;99.90
12015;DHT22;6066;48.138;16.402;2023-05-10T06:28:44;13.20;99.90
12015;DHT22;6066;48.138;16.402;2023-05-10T06:31:11;13.30;99.90
12015;DHT22;6066;48.138;16.402;2023-05-10T06:33:37;13.40;99.90
12015;DHT22;6066;48.138;16.402;2023-05-10T06:36:04;13.50;99.90
12015;DHT22;6066;48.138;16.402;2023-05-10T06:38:31;13.60;99.90
12015;DHT22;6066;48.138;16.402;2023-05-10T06:41:00;13.70;99.90
12015;DHT22;6066;48.138;16.402;2023-05-10T06:43:26;13.80;99.90
12015;DHT22;6066;48.138;16.402;2023-05-10T06:45:54;13.90;99.90
12015;DHT22;6066;48.138;16.402;2023-05-10T06:48:21;13.90;99.90
12015;DHT22;6066;48.138;16.402;2023-05-10T06:50:47;14.00;99.90
12015;DHT22;6066;48.138;16.402;2023-05-10T06:53:14;14.10;99.90
12015;DHT22;6066;48.138;16.402;2023-05-10T06:55:43;14.20;99.90
12015;DHT22;6066;48.138;16.402;2023-05-10T06:58:11;14.30;99.90
12015;DHT22;6066;48.138;16.402;2023-05-10T07:00:37;14.40;99.90
12015;DHT22;6066;48.138;16.402;2023-05-10T07:03:05;14.50;99.90
12015;DHT22;6066;48.138;16.402;2023-05-10T07:05:32;14.50;99.90
12015;DHT22;6066;48.138;16.402;2023-05-10T07:07:59;14.60;99.90
12015;DHT22;6066;48.138;16.402;2023-05-10T07:10:26;14.70;99.90
12015;DHT22;6066;48.138;16.402;2023-05-10T07:12:52;14.80;99.90
12015;DHT22;6066;48.138;16.402;2023-05-10T07:15:21;14.80;99.90
12015;DHT22;6066;48.138;16.402;2023-05-10T07:17:48;14.80;99.90
12015;DHT22;6066;48.138;16.402;2023-05-10T07:20:14;14.90;99.90
12015;DHT22;6066;48.138;16.402;2023-05-10T07:22:41;15.00;99.90
12015;DHT22;6066;48.138;16.402;2023-05-10T07:25:08;15.10;99.90
12015;DHT22;6066;48.138;16.402;2023-05-10T07:27:35;15.20;99.90
12015;DHT22;6066;48.138;16.402;2023-05-10T07:30:01;15.20;99.90
12015;DHT22;6066;48.138;16.402;2023-05-10T07:32:30;15.30;99.90
12015;DHT22;6066;48.138;16.402;2023-05-10T07:34:56;15.30;99.90
12015;DHT22;6066;48.138;16.402;2023-05-10T07:37:23;15.40;99.90
12015;DHT22;6066;48.138;16.402;2023-05-10T07:39:50;15.40;99.90
12015;DHT22;6066;48.138;16.402;2023-05-10T07:42:16;15.50;99.90
12015;DHT22;6066;48.138;16.402;2023-05-10T07:44:43;15.60;99.90
12015;DHT22;6066;48.138;16.402;2023-05-10T07:47:10;15.60;99.90
12015;DHT22;6066;48.138;16.402;2023-05-10T07:49:38;15.70;99.90
12015;DHT22;6066;48.138;16.402;2023-05-10T07:52:05;15.70;99.90
12015;DHT22;6066;48.138;16.402;2023-05-10T07:54:32;15.80;99.90
12015;DHT22;6066;48.138;16.402;2023-05-10T07:56:59;15.80;99.90
12015;DHT22;6066;48.138;16.402;2023-05-10T07:59:26;15.90;99.90
12015;DHT22;6066;48.138;16.402;2023-05-10T08:01:52;16.00;99.90
12015;DHT22;6066;48.138;16.402;2023-05-10T08:04:19;16.00;99.90
12015;DHT22;6066;48.138;16.402;2023-05-10T08:06:47;16.10;99.90
12015;DHT22;6066;48.138;16.402;2023-05-10T08:09:14;16.20;99.90
12015;DHT22;6066;48.138;16.402;2023-05-10T08:11:43;16.30;99.90
12015;DHT22;6066;48.138;16.402;2023-05-10T08:14:09;16.30;99.90
12015;DHT22;6066;48.138;16.402;2023-05-10T08:16:36;16.30;99.90
12015;DHT22;6066;48.138;16.402;2023-05-10T08:19:03;16.30;99.90
12015;DHT22;6066;48.138;16.402;2023-05-10T08:21:29;16.40;99.90
12015;DHT22;6066;48.138;16.402;2023-05-10T08:23:58;16.50;99.90
12015;DHT22;6066;48.138;16.402;2023-05-10T08:26:25;16.50;99.90
12015;DHT22;6066;48.138;16.402;2023-05-10T08:28:51;16.50;99.90
12015;DHT22;6066;48.138;16.402;2023-05-10T08:31:18;16.60;99.90
12015;DHT22;6066;48.138;16.402;2023-05-10T08:33:45;16.50;99.90
12015;DHT22;6066;48.138;16.402;2023-05-10T08:36:11;16.60;99.90
12015;DHT22;6066;48.138;16.402;2023-05-10T08:38:44;16.70;99.90
12015;DHT22;6066;48.138;16.402;2023-05-10T08:41:12;16.80;99.90
12015;DHT22;6066;48.138;16.402;2023-05-10T08:43:39;16.80;99.90
12015;DHT22;6066;48.138;16.402;2023-05-10T08:46:11;16.80;99.90
12015;DHT22;6066;48.138;16.402;2023-05-10T08:48:41;16.90;99.90
12015;DHT22;6066;48.138;16.402;2023-05-10T08:51:09;17.00;99.90
12015;DHT22;6066;48.138;16.402;2023-05-10T08:53:38;17.10;99.90
12015;DHT22;6066;48.138;16.402;2023-05-10T08:56:05;17.20;99.90
12015;DHT22;6066;48.138;16.402;2023-05-10T08:58:33;17.30;99.90
12015;DHT22;6066;48.138;16.402;2023-05-10T09:01:00;17.40;99.90
12015;DHT22;6066;48.138;16.402;2023-05-10T09:03:29;17.50;99.90
12015;DHT22;6066;48.138;16.402;2023-05-10T09:05:56;17.50;99.90
12015;DHT22;6066;48.138;16.402;2023-05-10T09:08:23;17.60;99.90
12015;DHT22;6066;48.138;16.402;2023-05-10T09:10:51;17.60;99.90
12015;DHT22;6066;48.138;16.402;2023-05-10T09:13:18;17.70;99.90
12015;DHT22;6066;48.138;16.402;2023-05-10T09:15:46;17.80;99.90
12015;DHT22;6066;48.138;16.402;2023-05-10T09:18:13;18.00;99.90
12015;DHT22;6066;48.138;16.402;2023-05-10T09:20:40;18.30;99.90
12015;DHT22;6066;48.138;16.402;2023-05-10T09:23:07;18.60;99.90
12015;DHT22;6066;48.138;16.402;2023-05-10T09:25:34;18.60;99.90
12015;DHT22;6066;48.138;16.402;2023-05-10T09:28:03;18.40;99.90
12015;DHT22;6066;48.138;16.402;2023-05-10T09:30:32;18.20;99.90
12015;DHT22;6066;48.138;16.402;2023-05-10T09:33:03;18.20;99.90
12015;DHT22;6066;48.138;16.402;2023-05-10T09:35:30;18.00;99.90
12015;DHT22;6066;48.138;16.402;2023-05-10T09:37:59;18.00;99.90
12015;DHT22;6066;48.138;16.402;2023-05-10T09:40:28;18.00;99.90
12015;DHT22;6066;48.138;16.402;2023-05-10T09:42:56;18.10;99.90
12015;DHT22;6066;48.138;16.402;2023-05-10T09:45:23;18.10;99.90
12015;DHT22;6066;48.138;16.402;2023-05-10T09:47:50;18.00;99.90
12015;DHT22;6066;48.138;16.402;2023-05-10T09:50:18;18.00;99.90
12015;DHT22;6066;48.138;16.402;2023-05-10T09:52:46;17.90;99.90
12015;DHT22;6066;48.138;16.402;2023-05-10T09:55:13;17.90;99.90
12015;DHT22;6066;48.138;16.402;2023-05-10T09:57:40;18.00;99.90
12015;DHT22;6066;48.138;16.402;2023-05-10T10:00:07;18.20;99.90
12015;DHT22;6066;48.138;16.402;2023-05-10T10:02:35;18.30;99.90
12015;DHT22;6066;48.138;16.402;2023-05-10T10:05:02;18.40;99.90
12015;DHT22;6066;48.138;16.402;2023-05-10T10:07:30;18.50;99.90
12015;DHT22;6066;48.138;16.402;2023-05-10T10:09:57;18.40;99.90
12015;DHT22;6066;48.138;16.402;2023-05-10T10:12:25;18.40;99.90
12015;DHT22;6066;48.138;16.402;2023-05-10T10:14:52;18.40;99.90
12015;DHT22;6066;48.138;16.402;2023-05-10T10:17:18;18.50;99.90
12015;DHT22;6066;48.138;16.402;2023-05-10T10:19:46;18.50;99.90
12015;DHT22;6066;48.138;16.402;2023-05-10T10:22:13;18.60;99.90
12015;DHT22;6066;48.138;16.402;2023-05-10T10:24:41;18.60;99.90
12015;DHT22;6066;48.138;16.402;2023-05-10T10:27:20;18.60;99.90
12015;DHT22;6066;48.138;16.402;2023-05-10T10:29:50;18.70;99.90
12015;DHT22;6066;48.138;16.402;2023-05-10T10:32:20;18.70;99.90
12015;DHT22;6066;48.138;16.402;2023-05-10T10:34:48;18.70;99.90
12015;DHT22;6066;48.138;16.402;2023-05-10T10:37:15;18.80;99.90
12015;DHT22;6066;48.138;16.402;2023-05-10T10:39:44;18.90;99.90
12015;DHT22;6066;48.138;16.402;2023-05-10T10:42:10;19.00;99.90
12015;DHT22;6066;48.138;16.402;2023-05-10T10:44:37;19.00;99.90
12015;DHT22;6066;48.138;16.402;2023-05-10T10:47:05;19.00;99.90
12015;DHT22;6066;48.138;16.402;2023-05-10T10:49:37;19.00;99.90
12015;DHT22;6066;48.138;16.402;2023-05-10T10:52:14;18.80;99.90
12015;DHT22;6066;48.138;16.402;2023-05-10T10:54:41;18.60;99.90
12015;DHT22;6066;48.138;16.402;2023-05-10T10:57:12;18.40;99.90
12015;DHT22;6066;48.138;16.402;2023-05-10T10:59:42;18.40;99.90
12015;DHT22;6066;48.138;16.402;2023-05-10T11:02:09;18.50;99.90
12015;DHT22;6066;48.138;16.402;2023-05-10T11:04:42;18.70;99.90
12015;DHT22;6066;48.138;16.402;2023-05-10T11:07:17;18.90;99.90
12015;DHT22;6066;48.138;16.402;2023-05-10T11:09:45;18.90;99.90
12015;DHT22;6066;48.138;16.402;2023-05-10T11:12:14;19.00;99.90
12015;DHT22;6066;48.138;16.402;2023-05-10T11:14:43;19.20;99.90
12015;DHT22;6066;48.138;16.402;2023-05-10T11:17:22;19.30;99.90
12015;DHT22;6066;48.138;16.402;2023-05-10T11:20:07;19.40;99.90
12015;DHT22;6066;48.138;16.402;2023-05-10T11:22:48;19.40;99.90
12015;DHT22;6066;48.138;16.402;2023-05-10T11:25:15;19.20;99.90
12015;DHT22;6066;48.138;16.402;2023-05-10T11:27:43;19.30;99.90
12015;DHT22;6066;48.138;16.402;2023-05-10T11:30:10;19.40;99.90
12015;DHT22;6066;48.138;16.402;2023-05-10T11:32:37;19.20;99.90
12015;DHT22;6066;48.138;16.402;2023-05-10T11:35:07;19.20;99.90
12015;DHT22;6066;48.138;16.402;2023-05-10T11:37:34;19.20;99.90
12015;DHT22;6066;48.138;16.402;2023-05-10T11:40:01;19.20;99.90
12015;DHT22;6066;48.138;16.402;2023-05-10T11:42:30;19.20;99.90
12015;DHT22;6066;48.138;16.402;2023-05-10T11:44:58;19.40;99.90
12015;DHT22;6066;48.138;16.402;2023-05-10T11:47:26;19.40;99.90
12015;DHT22;6066;48.138;16.402;2023-05-10T11:49:53;19.40;99.90
12015;DHT22;6066;48.138;16.402;2023-05-10T11:52:20;19.50;99.90
12015;DHT22;6066;48.138;16.402;2023-05-10T11:54:50;19.50;99.90
12015;DHT22;6066;48.138;16.402;2023-05-10T11:57:17;19.70;99.90
12015;DHT22;6066;48.138;16.402;2023-05-10T11:59:44;19.80;99.90
12015;DHT22;6066;48.138;16.402;2023-05-10T12:02:12;19.90;99.90
12015;DHT22;6066;48.138;16.402;2023-05-10T12:04:39;20.10;99.90
12015;DHT22;6066;48.138;16.402;2023-05-10T12:07:06;20.10;99.90
12015;DHT22;6066;48.138;16.402;2023-05-10T12:09:33;20.00;99.90
12015;DHT22;6066;48.138;16.402;2023-05-10T12:11:59;19.90;99.90
12015;DHT22;6066;48.138;16.402;2023-05-10T12:14:26;19.80;99.90
12015;DHT22;6066;48.138;16.402;2023-05-10T12:16:53;19.80;99.90
12015;DHT22;6066;48.138;16.402;2023-05-10T12:19:21;19.80;99.90
12015;DHT22;6066;48.138;16.402;2023-05-10T12:21:48;19.60;99.90
12015;DHT22;6066;48.138;16.402;2023-05-10T12:24:15;19.60;99.90
12015;DHT22;6066;48.138;16.402;2023-05-10T12:26:44;19.70;99.90
12015;DHT22;6066;48.138;16.402;2023-05-10T12:29:12;19.80;99.90
12015;DHT22;6066;48.138;16.402;2023-05-10T12:31:48;19.80;99.90
12015;DHT22;6066;48.138;16.402;2023-05-10T12:34:23;20.00;99.90
12015;DHT22;6066;48.138;16.402;2023-05-10T12:36:50;20.10;99.90
12015;DHT22;6066;48.138;16.402;2023-05-10T12:39:17;20.20;99.90
12015;DHT22;6066;48.138;16.402;2023-05-10T12:41:44;20.30;99.90
12015;DHT22;6066;48.138;16.402;2023-05-10T12:44:10;20.40;99.90
12015;DHT22;6066;48.138;16.402;2023-05-10T12:46:37;20.40;99.90
12015;DHT22;6066;48.138;16.402;2023-05-10T12:49:05;20.40;99.90
12015;DHT22;6066;48.138;16.402;2023-05-10T12:51:34;20.40;99.90
12015;DHT22;6066;48.138;16.402;2023-05-10T12:54:04;20.30;99.90
12015;DHT22;6066;48.138;16.402;2023-05-10T12:56:30;20.30;99.90
12015;DHT22;6066;48.138;16.402;2023-05-10T12:58:57;20.00;99.90
12015;DHT22;6066;48.138;16.402;2023-05-10T13:01:24;19.80;99.90
12015;DHT22;6066;48.138;16.402;2023-05-10T13:03:50;19.70;99.90
12015;DHT22;6066;48.138;16.402;2023-05-10T13:06:17;19.70;99.90
12015;DHT22;6066;48.138;16.402;2023-05-10T13:08:45;19.60;99.90
12015;DHT22;6066;48.138;16.402;2023-05-10T13:11:12;19.50;99.90
12015;DHT22;6066;48.138;16.402;2023-05-10T13:13:41;19.50;99.90
12015;DHT22;6066;48.138;16.402;2023-05-10T13:16:08;19.50;99.90
12015;DHT22;6066;48.138;16.402;2023-05-10T13:18:39;19.60;99.90
12015;DHT22;6066;48.138;16.402;2023-05-10T13:21:06;19.50;99.90
12015;DHT22;6066;48.138;16.402;2023-05-10T13:23:33;19.50;99.90
12015;DHT22;6066;48.138;16.402;2023-05-10T13:26:01;19.50;99.90
12015;DHT22;6066;48.138;16.402;2023-05-10T13:28:28;19.30;99.90
12015;DHT22;6066;48.138;16.402;2023-05-10T13:30:55;19.20;99.90
12015;DHT22;6066;48.138;16.402;2023-05-10T13:33:22;19.30;99.90
12015;DHT22;6066;48.138;16.402;2023-05-10T13:35:49;19.70;99.90
12015;DHT22;6066;48.138;16.402;2023-05-10T13:38:16;20.00;99.90
12015;DHT22;6066;48.138;16.402;2023-05-10T13:40:43;20.00;99.90
12015;DHT22;6066;48.138;16.402;2023-05-10T13:43:11;20.10;99.90
12015;DHT22;6066;48.138;16.402;2023-05-10T13:45:38;20.20;99.90
12015;DHT22;6066;48.138;16.402;2023-05-10T13:48:06;20.30;99.90
12015;DHT22;6066;48.138;16.402;2023-05-10T13:50:33;20.30;99.90
12015;DHT22;6066;48.138;16.402;2023-05-10T13:52:59;20.10;99.90
12015;DHT22;6066;48.138;16.402;2023-05-10T13:55:27;19.90;99.90
12015;DHT22;6066;48.138;16.402;2023-05-10T13:57:54;19.80;99.90
12015;DHT22;6066;48.138;16.402;2023-05-10T14:00:22;19.90;99.90
12015;DHT22;6066;48.138;16.402;2023-05-10T14:02:48;19.90;99.90
12015;DHT22;6066;48.138;16.402;2023-05-10T14:05:15;20.10;99.90
12015;DHT22;6066;48.138;16.402;2023-05-10T14:07:42;20.30;99.90
12015;DHT22;6066;48.138;16.402;2023-05-10T14:10:09;20.40;99.90
12015;DHT22;6066;48.138;16.402;2023-05-10T14:12:36;20.40;99.90
12015;DHT22;6066;48.138;16.402;2023-05-10T14:15:03;20.30;99.90
12015;DHT22;6066;48.138;16.402;2023-05-10T14:17:35;20.30;99.90
12015;DHT22;6066;48.138;16.402;2023-05-10T14:20:02;20.30;99.90
12015;DHT22;6066;48.138;16.402;2023-05-10T14:22:29;20.40;99.90
12015;DHT22;6066;48.138;16.402;2023-05-10T14:24:56;20.40;99.90
12015;DHT22;6066;48.138;16.402;2023-05-10T14:27:23;20.10;99.90
12015;DHT22;6066;48.138;16.402;2023-05-10T14:29:50;19.90;99.90
12015;DHT22;6066;48.138;16.402;2023-05-10T14:32:17;19.80;99.90
12015;DHT22;6066;48.138;16.402;2023-05-10T14:34:45;19.80;99.90
12015;DHT22;6066;48.138;16.402;2023-05-10T14:37:13;19.90;99.90
12015;DHT22;6066;48.138;16.402;2023-05-10T14:39:40;20.00;99.90
12015;DHT22;6066;48.138;16.402;2023-05-10T14:42:07;20.00;99.90
12015;DHT22;6066;48.138;16.402;2023-05-10T14:44:34;19.90;99.90
12015;DHT22;6066;48.138;16.402;2023-05-10T14:47:01;19.80;99.90
12015;DHT22;6066;48.138;16.402;2023-05-10T14:49:27;19.70;99.90
12015;DHT22;6066;48.138;16.402;2023-05-10T14:51:55;19.70;99.90
12015;DHT22;6066;48.138;16.402;2023-05-10T14:54:22;19.80;99.90
12015;DHT22;6066;48.138;16.402;2023-05-10T14:56:52;19.90;99.90
12015;DHT22;6066;48.138;16.402;2023-05-10T14:59:20;20.00;99.90
12015;DHT22;6066;48.138;16.402;2023-05-10T15:01:46;20.00;99.90
12015;DHT22;6066;48.138;16.402;2023-05-10T15:04:13;20.10;99.90
12015;DHT22;6066;48.138;16.402;2023-05-10T15:06:41;20.00;99.90
12015;DHT22;6066;48.138;16.402;2023-05-10T15:09:09;19.90;99.90
12015;DHT22;6066;48.138;16.402;2023-05-10T15:11:36;19.70;99.90
12015;DHT22;6066;48.138;16.402;2023-05-10T15:14:03;19.50;99.90
12015;DHT22;6066;48.138;16.402;2023-05-10T15:16:29;19.30;99.90
12015;DHT22;6066;48.138;16.402;2023-05-10T15:18:56;19.10;99.90
12015;DHT22;6066;48.138;16.402;2023-05-10T15:21:23;18.90;99.90
12015;DHT22;6066;48.138;16.402;2023-05-10T15:23:49;18.90;99.90
12015;DHT22;6066;48.138;16.402;2023-05-10T15:26:17;18.90;99.90
12015;DHT22;6066;48.138;16.402;2023-05-10T15:28:44;19.00;99.90
12015;DHT22;6066;48.138;16.402;2023-05-10T15:31:11;19.20;99.90
12015;DHT22;6066;48.138;16.402;2023-05-10T15:33:38;19.40;99.90
12015;DHT22;6066;48.138;16.402;2023-05-10T15:36:06;19.30;99.90
12015;DHT22;6066;48.138;16.402;2023-05-10T15:38:33;19.20;99.90
12015;DHT22;6066;48.138;16.402;2023-05-10T15:40:59;19.00;99.90